sensor_id;sensor_type;location;lat;lon;timestamp;P1;durP1;ratioP1;P2;durP2;ratioP2
11173;SDS011;5643;50.856;12.088;2023-05-07T00:00:42;9.23;;;8.43;;
11173;SDS011;5643;50.856;12.088;2023-05-07T00:03:18;9.00;;;8.20;;
11173;SDS011;5643;50.856;12.088;2023-05-07T00:09:31;11.67;;;10.57;;
11173;SDS011;5643;50.856;12.088;2023-05-07T00:12:04;10.27;;;9.37;;
11173;SDS011;5643;50.856;12.088;2023-05-07T00:14:35;11.07;;;10.07;;
11173;SDS011;5643;50.856;12.088;2023-05-07T00:17:59;10.90;;;9.90;;
11173;SDS011;5643;50.856;12.088;2023-05-07T00:20:34;11.47;;;10.47;;
11173;SDS011;5643;50.856;12.088;2023-05-07T00:23:07;9.67;;;8.77;;
11173;SDS011;5643;50.856;12.088;2023-05-07T00:25:40;10.70;;;9.60;;
11173;SDS011;5643;50.856;12.088;2023-05-07T00:28:15;10.37;;;9.37;;
11173;SDS011;5643;50.856;12.088;2023-05-07T00:34:26;11.57;;;10.37;;
11173;SDS011;5643;50.856;12.088;2023-05-07T00:36:56;11.53;;;10.43;;
11173;SDS011;5643;50.856;12.088;2023-05-07T00:39:25;9.90;;;8.90;;
11173;SDS011;5643;50.856;12.088;2023-05-07T00:41:57;9.00;;;8.17;;
11173;SDS011;5643;50.856;12.088;2023-05-07T00:44:29;10.20;;;9.23;;
11173;SDS011;5643;50.856;12.088;2023-05-07T00:47:03;9.20;;;8.30;;
11173;SDS011;5643;50.856;12.088;2023-05-07T00:49:39;7.43;;;6.73;;
11173;SDS011;5643;50.856;12.088;2023-05-07T00:52:16;10.97;;;9.87;;
11173;SDS011;5643;50.856;12.088;2023-05-07T00:54:47;10.37;;;9.43;;
11173;SDS011;5643;50.856;12.088;2023-05-07T01:00:47;7.80;;;7.10;;
11173;SDS011;5643;50.856;12.088;2023-05-07T01:03:25;7.93;;;7.23;;
11173;SDS011;5643;50.856;12.088;2023-05-07T01:06:04;8.20;;;7.40;;
11173;SDS011;5643;50.856;12.088;2023-05-07T01:08:37;8.20;;;7.40;;
11173;SDS011;5643;50.856;12.088;2023-05-07T01:11:14;8.90;;;8.03;;
11173;SDS011;5643;50.856;12.088;2023-05-07T01:17:15;7.43;;;6.73;;
11173;SDS011;5643;50.856;12.088;2023-05-07T01:19:45;7.80;;;7.10;;
11173;SDS011;5643;50.856;12.088;2023-05-07T01:22:26;8.07;;;7.37;;
11173;SDS011;5643;50.856;12.088;2023-05-07T01:25:02;6.90;;;6.30;;
11173;SDS011;5643;50.856;12.088;2023-05-07T01:34:32;5.17;;;4.77;;
11173;SDS011;5643;50.856;12.088;2023-05-07T01:37:06;5.03;;;4.63;;
11173;SDS011;5643;50.856;12.088;2023-05-07T01:39:42;5.20;;;4.70;;
11173;SDS011;5643;50.856;12.088;2023-05-07T01:42:15;5.53;;;5.03;;
11173;SDS011;5643;50.856;12.088;2023-05-07T01:44:51;6.00;;;5.50;;
11173;SDS011;5643;50.856;12.088;2023-05-07T01:47:21;6.67;;;6.10;;
11173;SDS011;5643;50.856;12.088;2023-05-07T01:50:28;6.33;;;5.83;;
11173;SDS011;5643;50.856;12.088;2023-05-07T01:56:01;6.90;;;6.30;;
11173;SDS011;5643;50.856;12.088;2023-05-07T01:58:35;6.97;;;6.23;;
11173;SDS011;5643;50.856;12.088;2023-05-07T02:01:14;7.73;;;6.93;;
11173;SDS011;5643;50.856;12.088;2023-05-07T02:03:46;7.07;;;6.47;;
11173;SDS011;5643;50.856;12.088;2023-05-07T02:09:26;8.00;;;7.30;;
11173;SDS011;5643;50.856;12.088;2023-05-07T02:12:02;6.30;;;5.80;;
11173;SDS011;5643;50.856;12.088;2023-05-07T02:17:23;6.17;;;5.67;;
11173;SDS011;5643;50.856;12.088;2023-05-07T04:19:55;13.33;;;12.13;;
11173;SDS011;5643;50.856;12.088;2023-05-07T04:22:25;12.37;;;11.27;;
11173;SDS011;5643;50.856;12.088;2023-05-07T04:24:57;12.80;;;11.70;;
11173;SDS011;5643;50.856;12.088;2023-05-07T04:27:29;12.93;;;11.73;;
11173;SDS011;5643;50.856;12.088;2023-05-07T04:29:58;12.37;;;11.27;;
11173;SDS011;5643;50.856;12.088;2023-05-07T04:32:29;14.77;;;13.47;;
11173;SDS011;5643;50.856;12.088;2023-05-07T04:34:59;14.50;;;13.20;;
11173;SDS011;5643;50.856;12.088;2023-05-07T04:37:36;13.43;;;12.23;;
11173;SDS011;5643;50.856;12.088;2023-05-07T04:40:05;14.07;;;12.77;;
11173;SDS011;5643;50.856;12.088;2023-05-07T04:42:39;12.53;;;11.33;;
11173;SDS011;5643;50.856;12.088;2023-05-07T04:45:17;15.53;;;14.13;;
11173;SDS011;5643;50.856;12.088;2023-05-07T04:47:48;15.73;;;14.33;;
11173;SDS011;5643;50.856;12.088;2023-05-07T04:50:22;15.03;;;13.63;;
11173;SDS011;5643;50.856;12.088;2023-05-07T04:52:53;15.20;;;13.80;;
11173;SDS011;5643;50.856;12.088;2023-05-07T04:55:25;14.50;;;13.20;;
11173;SDS011;5643;50.856;12.088;2023-05-07T04:57:58;15.07;;;13.67;;
11173;SDS011;5643;50.856;12.088;2023-05-07T05:00:29;16.10;;;14.60;;
11173;SDS011;5643;50.856;12.088;2023-05-07T05:03:06;16.97;;;15.43;;
11173;SDS011;5643;50.856;12.088;2023-05-07T05:05:42;16.87;;;15.33;;
11173;SDS011;5643;50.856;12.088;2023-05-07T05:08:25;17.80;;;16.20;;
11173;SDS011;5643;50.856;12.088;2023-05-07T05:11:00;16.20;;;14.70;;
11173;SDS011;5643;50.856;12.088;2023-05-07T05:13:46;14.77;;;13.40;;
11173;SDS011;5643;50.856;12.088;2023-05-07T05:16:18;14.87;;;13.47;;
11173;SDS011;5643;50.856;12.088;2023-05-07T05:18:50;14.97;;;13.63;;
11173;SDS011;5643;50.856;12.088;2023-05-07T13:22:16;3.20;;;3.00;;
11173;SDS011;5643;50.856;12.088;2023-05-07T13:24:49;3.47;;;3.17;;
11173;SDS011;5643;50.856;12.088;2023-05-07T13:27:28;3.13;;;2.93;;
11173;SDS011;5643;50.856;12.088;2023-05-07T13:30:15;2.90;;;2.70;;
11173;SDS011;5643;50.856;12.088;2023-05-07T13:32:50;3.40;;;3.20;;
11173;SDS011;5643;50.856;12.088;2023-05-07T13:35:24;2.70;;;2.50;;
11173;SDS011;5643;50.856;12.088;2023-05-07T13:38:05;3.30;;;3.10;;
11173;SDS011;5643;50.856;12.088;2023-05-07T13:40:42;3.13;;;2.93;;
11173;SDS011;5643;50.856;12.088;2023-05-07T13:43:22;3.00;;;2.80;;
11173;SDS011;5643;50.856;12.088;2023-05-07T13:46:09;3.03;;;2.90;;
11173;SDS011;5643;50.856;12.088;2023-05-07T13:48:47;3.33;;;3.13;;
11173;SDS011;5643;50.856;12.088;2023-05-07T13:51:30;3.23;;;3.03;;
11173;SDS011;5643;50.856;12.088;2023-05-07T13:54:15;3.60;;;3.40;;
11173;SDS011;5643;50.856;12.088;2023-05-07T13:56:55;3.17;;;2.93;;
11173;SDS011;5643;50.856;12.088;2023-05-07T13:59:27;3.30;;;3.10;;
11173;SDS011;5643;50.856;12.088;2023-05-07T14:02:06;4.97;;;4.57;;
11173;SDS011;5643;50.856;12.088;2023-05-07T14:04:39;3.97;;;3.67;;
11173;SDS011;5643;50.856;12.088;2023-05-07T14:07:17;3.60;;;3.30;;
11173;SDS011;5643;50.856;12.088;2023-05-07T14:09:58;4.13;;;3.80;;
11173;SDS011;5643;50.856;12.088;2023-05-07T14:12:39;4.13;;;3.83;;
11173;SDS011;5643;50.856;12.088;2023-05-07T14:15:14;4.43;;;4.13;;
11173;SDS011;5643;50.856;12.088;2023-05-07T14:17:56;4.23;;;3.90;;
11173;SDS011;5643;50.856;12.088;2023-05-07T14:20:38;4.33;;;3.93;;
11173;SDS011;5643;50.856;12.088;2023-05-07T15:23:07;3.57;;;3.30;;
11173;SDS011;5643;50.856;12.088;2023-05-07T15:25:41;4.33;;;4.03;;
11173;SDS011;5643;50.856;12.088;2023-05-07T15:28:23;5.17;;;4.77;;
11173;SDS011;5643;50.856;12.088;2023-05-07T15:31:01;5.60;;;5.10;;
11173;SDS011;5643;50.856;12.088;2023-05-07T15:33:44;4.73;;;4.40;;
11173;SDS011;5643;50.856;12.088;2023-05-07T15:36:35;5.27;;;4.87;;
11173;SDS011;5643;50.856;12.088;2023-05-07T15:39:19;4.97;;;4.60;;
11173;SDS011;5643;50.856;12.088;2023-05-07T15:42:00;4.90;;;4.50;;
11173;SDS011;5643;50.856;12.088;2023-05-07T15:44:33;4.93;;;4.53;;
11173;SDS011;5643;50.856;12.088;2023-05-07T15:47:03;4.80;;;4.43;;
11173;SDS011;5643;50.856;12.088;2023-05-07T15:49:43;5.20;;;4.80;;
11173;SDS011;5643;50.856;12.088;2023-05-07T15:52:17;4.83;;;4.50;;
11173;SDS011;5643;50.856;12.088;2023-05-07T15:55:09;4.13;;;3.83;;
11173;SDS011;5643;50.856;12.088;2023-05-07T15:57:39;3.80;;;3.60;;
11173;SDS011;5643;50.856;12.088;2023-05-07T16:00:15;3.97;;;3.60;;
11173;SDS011;5643;50.856;12.088;2023-05-07T16:02:54;4.37;;;4.07;;
11173;SDS011;5643;50.856;12.088;2023-05-07T16:05:30;3.63;;;3.43;;
11173;SDS011;5643;50.856;12.088;2023-05-07T16:08:09;3.77;;;3.57;;
11173;SDS011;5643;50.856;12.088;2023-05-07T16:10:46;3.70;;;3.50;;
11173;SDS011;5643;50.856;12.088;2023-05-07T16:13:20;4.40;;;4.10;;
11173;SDS011;5643;50.856;12.088;2023-05-07T16:16:07;4.17;;;3.87;;
11173;SDS011;5643;50.856;12.088;2023-05-07T16:18:50;4.63;;;4.23;;
11173;SDS011;5643;50.856;12.088;2023-05-07T16:21:29;4.30;;;4.00;;
11173;SDS011;5643;50.856;12.088;2023-05-07T16:24:13;4.53;;;4.23;;
11173;SDS011;5643;50.856;12.088;2023-05-07T16:26:53;4.30;;;3.90;;
11173;SDS011;5643;50.856;12.088;2023-05-07T16:29:23;4.20;;;3.90;;
11173;SDS011;5643;50.856;12.088;2023-05-07T16:31:51;3.70;;;3.50;;
11173;SDS011;5643;50.856;12.088;2023-05-07T16:34:23;4.60;;;4.30;;
11173;SDS011;5643;50.856;12.088;2023-05-07T16:36:51;3.73;;;3.43;;
11173;SDS011;5643;50.856;12.088;2023-05-07T16:39:18;4.40;;;4.10;;
11173;SDS011;5643;50.856;12.088;2023-05-07T16:41:52;4.50;;;4.20;;
11173;SDS011;5643;50.856;12.088;2023-05-07T16:44:21;4.90;;;4.60;;
11173;SDS011;5643;50.856;12.088;2023-05-07T16:46:53;5.00;;;4.70;;
11173;SDS011;5643;50.856;12.088;2023-05-07T16:49:23;5.57;;;5.07;;
11173;SDS011;5643;50.856;12.088;2023-05-07T16:51:51;4.60;;;4.30;;
11173;SDS011;5643;50.856;12.088;2023-05-07T16:54:18;4.20;;;3.90;;
11173;SDS011;5643;50.856;12.088;2023-05-07T16:56:46;4.47;;;4.07;;
11173;SDS011;5643;50.856;12.088;2023-05-07T16:59:17;4.77;;;4.40;;
11173;SDS011;5643;50.856;12.088;2023-05-07T17:01:44;5.10;;;4.80;;
11173;SDS011;5643;50.856;12.088;2023-05-07T17:04:11;4.60;;;4.30;;
11173;SDS011;5643;50.856;12.088;2023-05-07T17:06:40;5.50;;;5.10;;
11173;SDS011;5643;50.856;12.088;2023-05-07T17:09:08;4.57;;;4.27;;
11173;SDS011;5643;50.856;12.088;2023-05-07T17:11:36;4.67;;;4.37;;
11173;SDS011;5643;50.856;12.088;2023-05-07T17:14:04;4.30;;;4.00;;
11173;SDS011;5643;50.856;12.088;2023-05-07T17:16:34;4.20;;;3.90;;
11173;SDS011;5643;50.856;12.088;2023-05-07T17:19:03;4.83;;;4.50;;
11173;SDS011;5643;50.856;12.088;2023-05-07T17:21:30;4.67;;;4.33;;
11173;SDS011;5643;50.856;12.088;2023-05-07T17:23:57;5.67;;;5.27;;
11173;SDS011;5643;50.856;12.088;2023-05-07T17:26:25;4.93;;;4.53;;
11173;SDS011;5643;50.856;12.088;2023-05-07T17:28:53;4.47;;;4.17;;
11173;SDS011;5643;50.856;12.088;2023-05-07T17:31:21;4.77;;;4.37;;
11173;SDS011;5643;50.856;12.088;2023-05-07T17:33:55;5.00;;;4.60;;
11173;SDS011;5643;50.856;12.088;2023-05-07T17:36:24;4.33;;;4.03;;
11173;SDS011;5643;50.856;12.088;2023-05-07T17:38:52;3.40;;;3.20;;
11173;SDS011;5643;50.856;12.088;2023-05-07T17:41:19;4.10;;;3.80;;
11173;SDS011;5643;50.856;12.088;2023-05-07T17:43:52;4.13;;;3.83;;
11173;SDS011;5643;50.856;12.088;2023-05-07T17:46:24;4.30;;;4.00;;
11173;SDS011;5643;50.856;12.088;2023-05-07T17:48:52;4.50;;;4.10;;
11173;SDS011;5643;50.856;12.088;2023-05-07T17:51:23;4.27;;;3.90;;
11173;SDS011;5643;50.856;12.088;2023-05-07T17:53:54;4.63;;;4.33;;
11173;SDS011;5643;50.856;12.088;2023-05-07T17:56:22;4.73;;;4.40;;
11173;SDS011;5643;50.856;12.088;2023-05-07T17:58:50;4.90;;;4.50;;
11173;SDS011;5643;50.856;12.088;2023-05-07T18:01:18;4.83;;;4.50;;
11173;SDS011;5643;50.856;12.088;2023-05-07T18:03:46;4.97;;;4.67;;
11173;SDS011;5643;50.856;12.088;2023-05-07T18:06:14;4.90;;;4.50;;
11173;SDS011;5643;50.856;12.088;2023-05-07T18:08:47;4.80;;;4.40;;
11173;SDS011;5643;50.856;12.088;2023-05-07T18:11:16;4.40;;;4.10;;
11173;SDS011;5643;50.856;12.088;2023-05-07T18:13:51;3.70;;;3.50;;
11173;SDS011;5643;50.856;12.088;2023-05-07T18:16:18;4.53;;;4.20;;
11173;SDS011;5643;50.856;12.088;2023-05-07T18:18:46;4.07;;;3.77;;
11173;SDS011;5643;50.856;12.088;2023-05-07T18:21:13;4.00;;;3.70;;
11173;SDS011;5643;50.856;12.088;2023-05-07T18:23:44;4.30;;;4.00;;
11173;SDS011;5643;50.856;12.088;2023-05-07T18:26:15;4.67;;;4.27;;
11173;SDS011;5643;50.856;12.088;2023-05-07T18:28:43;4.33;;;4.03;;
11173;SDS011;5643;50.856;12.088;2023-05-07T18:31:11;4.20;;;3.90;;
11173;SDS011;5643;50.856;12.088;2023-05-07T18:33:40;3.90;;;3.60;;
11173;SDS011;5643;50.856;12.088;2023-05-07T18:36:08;3.97;;;3.67;;
11173;SDS011;5643;50.856;12.088;2023-05-07T18:38:39;4.13;;;3.83;;
11173;SDS011;5643;50.856;12.088;2023-05-07T18:41:08;3.97;;;3.77;;
11173;SDS011;5643;50.856;12.088;2023-05-07T18:43:36;4.20;;;3.80;;
11173;SDS011;5643;50.856;12.088;2023-05-07T18:46:04;3.47;;;3.27;;
11173;SDS011;5643;50.856;12.088;2023-05-07T18:48:31;3.27;;;3.07;;
11173;SDS011;5643;50.856;12.088;2023-05-07T18:50:58;4.23;;;3.93;;
11173;SDS011;5643;50.856;12.088;2023-05-07T18:53:33;3.60;;;3.30;;
11173;SDS011;5643;50.856;12.088;2023-05-07T18:56:03;3.60;;;3.37;;
11173;SDS011;5643;50.856;12.088;2023-05-07T18:58:32;4.67;;;4.37;;
11173;SDS011;5643;50.856;12.088;2023-05-07T19:01:01;4.30;;;4.00;;
11173;SDS011;5643;50.856;12.088;2023-05-07T19:03:32;4.40;;;4.10;;
11173;SDS011;5643;50.856;12.088;2023-05-07T19:06:00;4.00;;;3.80;;
11173;SDS011;5643;50.856;12.088;2023-05-07T19:08:28;3.73;;;3.53;;
11173;SDS011;5643;50.856;12.088;2023-05-07T19:10:55;4.40;;;4.10;;
11173;SDS011;5643;50.856;12.088;2023-05-07T19:13:22;4.37;;;4.07;;
11173;SDS011;5643;50.856;12.088;2023-05-07T19:15:51;3.73;;;3.53;;
11173;SDS011;5643;50.856;12.088;2023-05-07T19:18:20;4.60;;;4.30;;
11173;SDS011;5643;50.856;12.088;2023-05-07T19:20:47;5.40;;;4.90;;
11173;SDS011;5643;50.856;12.088;2023-05-07T19:23:15;4.67;;;4.37;;
11173;SDS011;5643;50.856;12.088;2023-05-07T19:25:51;5.40;;;5.00;;
11173;SDS011;5643;50.856;12.088;2023-05-07T19:28:24;5.10;;;4.70;;
11173;SDS011;5643;50.856;12.088;2023-05-07T19:30:57;4.90;;;4.60;;
11173;SDS011;5643;50.856;12.088;2023-05-07T19:33:35;5.37;;;4.87;;
11173;SDS011;5643;50.856;12.088;2023-05-07T19:36:08;5.80;;;5.40;;
11173;SDS011;5643;50.856;12.088;2023-05-07T19:38:35;5.33;;;4.93;;
11173;SDS011;5643;50.856;12.088;2023-05-07T19:41:02;5.90;;;5.40;;
11173;SDS011;5643;50.856;12.088;2023-05-07T19:43:34;5.70;;;5.30;;
11173;SDS011;5643;50.856;12.088;2023-05-07T19:46:22;5.43;;;5.03;;
11173;SDS011;5643;50.856;12.088;2023-05-07T19:49:25;5.70;;;5.30;;
11173;SDS011;5643;50.856;12.088;2023-05-07T19:52:24;5.83;;;5.43;;
11173;SDS011;5643;50.856;12.088;2023-05-07T19:55:10;5.40;;;5.00;;
11173;SDS011;5643;50.856;12.088;2023-05-07T19:57:40;5.90;;;5.50;;
11173;SDS011;5643;50.856;12.088;2023-05-07T20:00:07;5.30;;;4.90;;
11173;SDS011;5643;50.856;12.088;2023-05-07T20:02:36;5.53;;;5.13;;
11173;SDS011;5643;50.856;12.088;2023-05-07T20:05:05;6.03;;;5.53;;
11173;SDS011;5643;50.856;12.088;2023-05-07T20:07:34;5.97;;;5.57;;
11173;SDS011;5643;50.856;12.088;2023-05-07T20:10:02;6.10;;;5.70;;
11173;SDS011;5643;50.856;12.088;2023-05-07T20:12:29;5.37;;;5.03;;
11173;SDS011;5643;50.856;12.088;2023-05-07T20:14:57;6.03;;;5.43;;
11173;SDS011;5643;50.856;12.088;2023-05-07T20:17:24;5.73;;;5.23;;
11173;SDS011;5643;50.856;12.088;2023-05-07T20:19:52;6.10;;;5.63;;
11173;SDS011;5643;50.856;12.088;2023-05-07T20:22:21;6.70;;;6.20;;
11173;SDS011;5643;50.856;12.088;2023-05-07T22:26:57;4.10;;;3.80;;
11173;SDS011;5643;50.856;12.088;2023-05-07T22:29:24;4.20;;;3.90;;
11173;SDS011;5643;50.856;12.088;2023-05-07T22:31:51;4.23;;;3.93;;
11173;SDS011;5643;50.856;12.088;2023-05-07T22:34:19;3.67;;;3.47;;
11173;SDS011;5643;50.856;12.088;2023-05-07T22:36:46;3.50;;;3.30;;
11173;SDS011;5643;50.856;12.088;2023-05-07T22:39:13;3.83;;;3.53;;
11173;SDS011;5643;50.856;12.088;2023-05-07T22:41:40;3.83;;;3.63;;
11173;SDS011;5643;50.856;12.088;2023-05-07T22:44:08;3.87;;;3.67;;
11173;SDS011;5643;50.856;12.088;2023-05-07T22:46:36;4.20;;;3.90;;
11173;SDS011;5643;50.856;12.088;2023-05-07T22:49:04;3.90;;;3.60;;
11173;SDS011;5643;50.856;12.088;2023-05-07T22:51:31;3.80;;;3.50;;
11173;SDS011;5643;50.856;12.088;2023-05-07T22:53:58;4.00;;;3.70;;
11173;SDS011;5643;50.856;12.088;2023-05-07T22:56:25;4.27;;;3.97;;
11173;SDS011;5643;50.856;12.088;2023-05-07T22:58:53;4.17;;;3.87;;
11173;SDS011;5643;50.856;12.088;2023-05-07T23:01:22;3.83;;;3.63;;
11173;SDS011;5643;50.856;12.088;2023-05-07T23:03:49;4.27;;;3.97;;
11173;SDS011;5643;50.856;12.088;2023-05-07T23:06:18;4.10;;;3.80;;
11173;SDS011;5643;50.856;12.088;2023-05-07T23:08:45;3.80;;;3.50;;
11173;SDS011;5643;50.856;12.088;2023-05-07T23:11:13;4.03;;;3.73;;
11173;SDS011;5643;50.856;12.088;2023-05-07T23:13:40;4.07;;;3.77;;
11173;SDS011;5643;50.856;12.088;2023-05-07T23:16:07;4.00;;;3.70;;
11173;SDS011;5643;50.856;12.088;2023-05-07T23:18:36;4.10;;;3.80;;
11173;SDS011;5643;50.856;12.088;2023-05-07T23:21:06;4.10;;;3.80;;
11173;SDS011;5643;50.856;12.088;2023-05-07T23:23:33;4.00;;;3.70;;
